sensor_id;sensor_type;location;lat;lon;timestamp;temperature;humidity
47368;DHT22;34646;47.964;7.982;2022-07-26T00:05:27;26.20;56.10
47368;DHT22;34646;47.964;7.982;2022-07-26T00:12:09;26.20;56.20
47368;DHT22;34646;47.964;7.982;2022-07-26T00:26:16;26.20;56.30
47368;DHT22;34646;47.964;7.982;2022-07-26T00:33:02;26.10;56.40
47368;DHT22;34646;47.964;7.982;2022-07-26T00:39:30;26.20;56.60
47368;DHT22;34646;47.964;7.982;2022-07-26T00:46:01;26.10;56.70
47368;DHT22;34646;47.964;7.982;2022-07-26T00:53:00;26.10;56.80
47368;DHT22;34646;47.964;7.982;2022-07-26T00:59:55;26.10;56.90
47368;DHT22;34646;47.964;7.982;2022-07-26T01:06:54;26.10;57.10
47368;DHT22;34646;47.964;7.982;2022-07-26T01:21:48;26.20;57.20
47368;DHT22;34646;47.964;7.982;2022-07-26T01:35:32;26.10;57.00
47368;DHT22;34646;47.964;7.982;2022-07-26T01:42:00;26.10;57.50
47368;DHT22;34646;47.964;7.982;2022-07-26T01:48:30;26.10;57.00
47368;DHT22;34646;47.964;7.982;2022-07-26T02:01:54;26.10;57.00
47368;DHT22;34646;47.964;7.982;2022-07-26T02:08:18;26.10;57.00
47368;DHT22;34646;47.964;7.982;2022-07-26T02:14:57;26.10;56.90
47368;DHT22;34646;47.964;7.982;2022-07-26T02:21:29;26.10;56.90
47368;DHT22;34646;47.964;7.982;2022-07-26T02:34:41;26.00;56.90
47368;DHT22;34646;47.964;7.982;2022-07-26T02:55:36;26.00;56.90
47368;DHT22;34646;47.964;7.982;2022-07-26T03:02:07;26.00;57.00
47368;DHT22;34646;47.964;7.982;2022-07-26T03:08:31;26.00;57.00
47368;DHT22;34646;47.964;7.982;2022-07-26T03:15:00;26.00;57.00
47368;DHT22;34646;47.964;7.982;2022-07-26T03:21:29;26.00;57.00
47368;DHT22;34646;47.964;7.982;2022-07-26T03:42:00;25.90;57.10
47368;DHT22;34646;47.964;7.982;2022-07-26T03:48:30;25.90;57.10
47368;DHT22;34646;47.964;7.982;2022-07-26T03:55:00;25.80;57.20
47368;DHT22;34646;47.964;7.982;2022-07-26T04:01:13;25.50;57.60
47368;DHT22;34646;47.964;7.982;2022-07-26T04:38:00;25.10;59.10
47368;DHT22;34646;47.964;7.982;2022-07-26T04:45:04;25.00;59.30
47368;DHT22;34646;47.964;7.982;2022-07-26T04:58:06;24.90;60.00
47368;DHT22;34646;47.964;7.982;2022-07-26T05:04:30;24.90;59.80
47368;DHT22;34646;47.964;7.982;2022-07-26T05:11:18;25.00;59.70
47368;DHT22;34646;47.964;7.982;2022-07-26T05:17:30;25.20;59.80
47368;DHT22;34646;47.964;7.982;2022-07-26T05:23:44;25.20;59.70
47368;DHT22;34646;47.964;7.982;2022-07-26T05:38:19;25.30;59.70
47368;DHT22;34646;47.964;7.982;2022-07-26T05:44:40;25.30;59.50
47368;DHT22;34646;47.964;7.982;2022-07-26T05:58:34;25.40;59.50
47368;DHT22;34646;47.964;7.982;2022-07-26T06:04:59;25.40;59.40
47368;DHT22;34646;47.964;7.982;2022-07-26T06:24:35;25.40;59.20
47368;DHT22;34646;47.964;7.982;2022-07-26T06:45:08;25.50;58.90
47368;DHT22;34646;47.964;7.982;2022-07-26T07:06:06;25.50;58.80
47368;DHT22;34646;47.964;7.982;2022-07-26T07:12:25;25.50;58.60
47368;DHT22;34646;47.964;7.982;2022-07-26T07:18:58;25.50;58.70
47368;DHT22;34646;47.964;7.982;2022-07-26T07:32:35;25.50;58.70
47368;DHT22;34646;47.964;7.982;2022-07-26T07:39:05;25.50;58.70
47368;DHT22;34646;47.964;7.982;2022-07-26T07:46:14;25.50;58.60
47368;DHT22;34646;47.964;7.982;2022-07-26T07:52:53;25.50;58.50
47368;DHT22;34646;47.964;7.982;2022-07-26T07:59:18;25.50;58.40
47368;DHT22;34646;47.964;7.982;2022-07-26T08:05:30;25.50;58.20
47368;DHT22;34646;47.964;7.982;2022-07-26T08:12:27;25.50;58.10
47368;DHT22;34646;47.964;7.982;2022-07-26T08:26:07;25.50;57.80
47368;DHT22;34646;47.964;7.982;2022-07-26T08:33:05;25.50;57.70
47368;DHT22;34646;47.964;7.982;2022-07-26T08:39:42;25.50;57.80
47368;DHT22;34646;47.964;7.982;2022-07-26T08:46:06;25.50;57.50
47368;DHT22;34646;47.964;7.982;2022-07-26T08:52:58;25.50;57.50
47368;DHT22;34646;47.964;7.982;2022-07-26T08:59:20;25.50;57.60
47368;DHT22;34646;47.964;7.982;2022-07-26T09:05:36;25.50;57.50
47368;DHT22;34646;47.964;7.982;2022-07-26T09:26:21;25.50;56.20
47368;DHT22;34646;47.964;7.982;2022-07-26T09:33:01;25.50;56.30
47368;DHT22;34646;47.964;7.982;2022-07-26T10:01:07;25.50;55.80
47368;DHT22;34646;47.964;7.982;2022-07-26T10:08:00;25.50;55.90
47368;DHT22;34646;47.964;7.982;2022-07-26T10:27:50;25.60;56.40
47368;DHT22;34646;47.964;7.982;2022-07-26T10:34:42;25.50;56.50
47368;DHT22;34646;47.964;7.982;2022-07-26T10:48:32;25.60;57.20
47368;DHT22;34646;47.964;7.982;2022-07-26T11:02:57;25.60;57.60
47368;DHT22;34646;47.964;7.982;2022-07-26T11:09:35;25.60;57.80
47368;DHT22;34646;47.964;7.982;2022-07-26T11:16:35;25.60;57.80
47368;DHT22;34646;47.964;7.982;2022-07-26T11:37:37;25.70;57.70
47368;DHT22;34646;47.964;7.982;2022-07-26T11:43:50;25.60;57.90
47368;DHT22;34646;47.964;7.982;2022-07-26T11:57:50;25.70;58.00
47368;DHT22;34646;47.964;7.982;2022-07-26T12:11:52;25.70;57.50
47368;DHT22;34646;47.964;7.982;2022-07-26T12:25:43;25.70;57.40
47368;DHT22;34646;47.964;7.982;2022-07-26T12:32:31;25.70;57.20
47368;DHT22;34646;47.964;7.982;2022-07-26T12:53:22;25.70;57.00
47368;DHT22;34646;47.964;7.982;2022-07-26T13:06:01;25.70;57.30
47368;DHT22;34646;47.964;7.982;2022-07-26T13:12:22;25.70;57.10
47368;DHT22;34646;47.964;7.982;2022-07-26T13:19:04;25.70;57.40
47368;DHT22;34646;47.964;7.982;2022-07-26T13:25:34;25.70;57.20
47368;DHT22;34646;47.964;7.982;2022-07-26T13:32:07;25.70;57.40
47368;DHT22;34646;47.964;7.982;2022-07-26T13:38:30;25.70;57.40
47368;DHT22;34646;47.964;7.982;2022-07-26T13:45:00;25.70;57.10
47368;DHT22;34646;47.964;7.982;2022-07-26T13:51:31;25.70;57.10
47368;DHT22;34646;47.964;7.982;2022-07-26T13:58:06;25.70;57.40
47368;DHT22;34646;47.964;7.982;2022-07-26T14:12:05;25.70;57.70
47368;DHT22;34646;47.964;7.982;2022-07-26T14:18:30;25.70;57.30
47368;DHT22;34646;47.964;7.982;2022-07-26T14:25:00;25.70;57.20
47368;DHT22;34646;47.964;7.982;2022-07-26T14:31:45;25.70;57.00
47368;DHT22;34646;47.964;7.982;2022-07-26T14:37:56;25.80;57.40
47368;DHT22;34646;47.964;7.982;2022-07-26T14:44:11;25.80;57.20
47368;DHT22;34646;47.964;7.982;2022-07-26T14:58:00;25.90;57.00
47368;DHT22;34646;47.964;7.982;2022-07-26T15:04:31;26.00;57.10
47368;DHT22;34646;47.964;7.982;2022-07-26T15:19:04;26.20;57.10
47368;DHT22;34646;47.964;7.982;2022-07-26T15:25:30;26.30;57.20
47368;DHT22;34646;47.964;7.982;2022-07-26T15:32:03;26.20;57.10
47368;DHT22;34646;47.964;7.982;2022-07-26T15:39:01;26.20;57.00
47368;DHT22;34646;47.964;7.982;2022-07-26T15:52:36;26.10;56.90
47368;DHT22;34646;47.964;7.982;2022-07-26T16:20:42;26.10;56.90
47368;DHT22;34646;47.964;7.982;2022-07-26T16:27:30;26.10;56.60
47368;DHT22;34646;47.964;7.982;2022-07-26T16:33:42;26.10;56.60
47368;DHT22;34646;47.964;7.982;2022-07-26T16:40:01;26.10;56.80
47368;DHT22;34646;47.964;7.982;2022-07-26T16:53:07;26.10;57.00
47368;DHT22;34646;47.964;7.982;2022-07-26T16:59:28;26.10;56.90
47368;DHT22;34646;47.964;7.982;2022-07-26T17:05:52;26.10;56.80
47368;DHT22;34646;47.964;7.982;2022-07-26T17:35:00;26.10;48.30
47368;DHT22;34646;47.964;7.982;2022-07-26T17:56:29;25.80;46.90
47368;DHT22;34646;47.964;7.982;2022-07-26T18:02:39;25.80;46.10
47368;DHT22;34646;47.964;7.982;2022-07-26T18:16:53;25.60;45.80
47368;DHT22;34646;47.964;7.982;2022-07-26T18:23:00;25.50;45.90
47368;DHT22;34646;47.964;7.982;2022-07-26T18:36:01;25.40;45.80
47368;DHT22;34646;47.964;7.982;2022-07-26T18:42:21;25.30;45.80
47368;DHT22;34646;47.964;7.982;2022-07-26T18:48:41;25.30;46.40
47368;DHT22;34646;47.964;7.982;2022-07-26T18:55:25;25.10;47.10
47368;DHT22;34646;47.964;7.982;2022-07-26T19:07:52;24.90;47.00
47368;DHT22;34646;47.964;7.982;2022-07-26T19:13:53;24.80;47.30
47368;DHT22;34646;47.964;7.982;2022-07-26T19:19:54;24.70;47.90
47368;DHT22;34646;47.964;7.982;2022-07-26T19:25:55;24.60;48.10
47368;DHT22;34646;47.964;7.982;2022-07-26T19:31:55;24.50;48.60
47368;DHT22;34646;47.964;7.982;2022-07-26T19:37:56;24.50;49.20
47368;DHT22;34646;47.964;7.982;2022-07-26T19:43:57;24.60;49.00
47368;DHT22;34646;47.964;7.982;2022-07-26T19:49:57;24.70;49.10
47368;DHT22;34646;47.964;7.982;2022-07-26T19:55:58;24.70;49.00
47368;DHT22;34646;47.964;7.982;2022-07-26T20:01:59;24.70;49.10
47368;DHT22;34646;47.964;7.982;2022-07-26T20:07:59;24.80;48.90
47368;DHT22;34646;47.964;7.982;2022-07-26T20:14:01;24.80;49.00
47368;DHT22;34646;47.964;7.982;2022-07-26T20:20:01;24.80;49.10
47368;DHT22;34646;47.964;7.982;2022-07-26T20:26:05;24.80;49.30
47368;DHT22;34646;47.964;7.982;2022-07-26T20:32:06;24.90;50.30
47368;DHT22;34646;47.964;7.982;2022-07-26T20:38:06;25.00;49.90
47368;DHT22;34646;47.964;7.982;2022-07-26T20:44:07;25.00;50.50
47368;DHT22;34646;47.964;7.982;2022-07-26T20:50:09;25.00;50.80
47368;DHT22;34646;47.964;7.982;2022-07-26T20:56:10;25.10;50.70
47368;DHT22;34646;47.964;7.982;2022-07-26T21:02:13;25.00;50.70
47368;DHT22;34646;47.964;7.982;2022-07-26T21:08:16;25.10;50.60
47368;DHT22;34646;47.964;7.982;2022-07-26T21:14:23;25.10;50.50
47368;DHT22;34646;47.964;7.982;2022-07-26T21:20:28;25.10;50.50
47368;DHT22;34646;47.964;7.982;2022-07-26T21:26:32;25.10;50.40
47368;DHT22;34646;47.964;7.982;2022-07-26T21:32:36;25.10;50.50
47368;DHT22;34646;47.964;7.982;2022-07-26T21:38:37;25.10;50.60
47368;DHT22;34646;47.964;7.982;2022-07-26T21:44:38;25.10;50.90
47368;DHT22;34646;47.964;7.982;2022-07-26T21:50:39;25.10;50.30
47368;DHT22;34646;47.964;7.982;2022-07-26T21:56:40;25.00;50.20
47368;DHT22;34646;47.964;7.982;2022-07-26T22:02:41;25.00;50.20
47368;DHT22;34646;47.964;7.982;2022-07-26T22:08:42;25.00;50.20
47368;DHT22;34646;47.964;7.982;2022-07-26T22:14:42;25.00;50.10
47368;DHT22;34646;47.964;7.982;2022-07-26T22:20:43;25.00;50.10
47368;DHT22;34646;47.964;7.982;2022-07-26T22:26:46;25.00;50.00
47368;DHT22;34646;47.964;7.982;2022-07-26T22:32:47;25.00;50.00
47368;DHT22;34646;47.964;7.982;2022-07-26T22:38:48;25.00;50.00
47368;DHT22;34646;47.964;7.982;2022-07-26T22:44:49;25.00;49.90
47368;DHT22;34646;47.964;7.982;2022-07-26T22:50:49;25.00;49.90
47368;DHT22;34646;47.964;7.982;2022-07-26T22:56:50;24.90;49.80
47368;DHT22;34646;47.964;7.982;2022-07-26T23:02:51;24.90;49.90
47368;DHT22;34646;47.964;7.982;2022-07-26T23:08:51;24.90;49.80
47368;DHT22;34646;47.964;7.982;2022-07-26T23:14:52;24.90;50.00
47368;DHT22;34646;47.964;7.982;2022-07-26T23:20:53;24.90;49.80
47368;DHT22;34646;47.964;7.982;2022-07-26T23:26:53;24.90;50.00
47368;DHT22;34646;47.964;7.982;2022-07-26T23:32:54;24.90;49.90
47368;DHT22;34646;47.964;7.982;2022-07-26T23:38:57;24.90;50.00
47368;DHT22;34646;47.964;7.982;2022-07-26T23:44:58;24.90;50.00
47368;DHT22;34646;47.964;7.982;2022-07-26T23:50:58;24.90;50.00
47368;DHT22;34646;47.964;7.982;2022-07-26T23:56:59;24.90;50.10
